Date,TemperatureHighF,TemperatureAvgF,TemperatureLowF,DewpointHighF,DewpointAvgF,DewpointLowF,HumidityHigh,HumidityAvg,HumidityLow,PressureMaxIn,PressureMinIn,WindSpeedMaxMPH,WindSpeedAvgMPH,GustSpeedMaxMPH,PrecipitationSumIn
2013-1-1,49,47,43,49,42,30,99,86,53,30.05,29.89,10,4,14,0.24
2013-1-2,50,46,41,48,41,34,99,83,68,30.11,29.87,6,2,14,0.07
2013-1-3,45,38,27,37,33,27,99,83,71,30.22,30.07,4,1,8,0.00
2013-1-4,54,37,23,34,23,15,99,64,27,30.28,30.15,9,2,14,0.00
2013-1-5,54,41,22,29,25,20,97,57,30,30.33,30.21,8,2,13,0.00
2013-1-6,62,48,33,40,37,29,87,65,45,30.15,29.99,11,2,17,0.02
2013-1-7,57,39,26,33,29,26,99,71,40,30.37,30.15,6,1,14,0.00
2013-1-8,53,40,23,42,35,23,99,83,58,30.40,30.30,3,0,4,0.00
2013-1-9,64,52,35,54,48,35,99,87,60,30.39,30.31,5,1,11,0.00
2013-1-10,68,56,45,54,44,36,99,70,34,30.46,30.33,6,1,9,0.00
2013-1-11,52,46,44,47,45,40,99,97,63,30.32,30.12,5,1,11,0.09
2013-1-12,72,57,46,66,56,46,99,96,78,30.11,30.05,6,2,9,0.00
2013-1-13,71,63,56,64,60,56,99,93,75,30.08,30.00,14,4,20,0.00
2013-1-14,65,63,61,64,63,61,99,98,94,30.07,30.01,9,4,12,0.27
2013-1-15,62,45,40,62,44,40,99,99,99,30.15,30.03,7,4,12,0.22
2013-1-16,50,45,40,50,45,40,99,99,99,30.03,29.91,8,2,10,0.15
2013-1-17,50,42,32,49,42,32,99,99,99,30.12,29.81,14,4,29,2.17
2013-1-18,51,39,27,39,29,24,99,72,36,30.44,30.12,7,1,13,0.18
2013-1-19,55,41,22,37,29,22,99,64,32,30.41,30.12,12,3,18,0.00
2013-1-20,65,50,29,37,31,27,95,51,27,30.09,29.96,8,3,19,0.00
2013-1-21,61,43,26,37,27,15,99,60,26,30.03,29.85,14,3,19,0.00
2013-1-22,42,34,28,14,-2,-13,41,23,10,30.19,29.95,14,5,21,0.00
2013-1-23,46,34,18,23,15,-3,79,48,25,30.28,30.01,11,3,14,0.00
2013-1-24,45,33,23,28,14,2,91,49,26,30.42,29.91,13,5,22,0.00
2013-1-25,26,23,16,25,17,7,98,78,55,30.43,30.05,8,1,14,0.00
2013-1-26,42,29,26,36,29,26,99,97,79,30.30,30.03,2,0,3,0.05
2013-1-27,47,35,20,34,28,20,99,75,48,30.51,30.31,7,1,8,0.00
2013-1-28,51,42,34,45,39,30,99,88,74,30.41,30.18,8,3,17,0.04
2013-1-29,66,51,39,58,48,39,99,91,74,30.17,30.00,9,2,17,0.00
2013-1-30,73,67,62,64,62,60,99,86,67,29.99,29.39,18,10,32,0.72
2013-1-31,52,43,32,51,27,19,95,55,35,29.96,29.45,20,8,30,0.01
2013-2-1,40,34,23,29,11,0,63,40,20,30.29,29.83,17,7,23,0.00
2013-2-2,44,34,18,34,16,11,91,50,31,30.31,29.99,17,6,27,0.00
2013-2-3,52,43,32,36,29,22,99,60,38,29.97,29.81,16,6,30,0.01
2013-2-4,51,39,24,29,25,21,91,60,37,30.09,29.95,8,3,17,0.00
2013-2-5,65,49,37,37,33,28,82,57,34,29.93,29.84,8,3,14,0.00
2013-2-6,68,48,30,37,24,9,99,51,12,30.15,29.93,8,2,14,0.00
2013-2-7,43,38,37,39,33,25,99,83,52,30.25,29.97,8,4,14,0.63
2013-2-8,60,47,36,48,37,28,99,71,40,30.04,29.81,10,5,19,0.05
2013-2-9,62,42,27,28,23,12,95,54,14,30.27,30.04,5,1,9,0.00
2013-2-10,58,42,27,41,26,19,96,60,24,30.38,30.20,8,2,11,0.12
2013-2-11,58,50,42,57,50,42,99,99,99,30.11,29.91,13,5,20,0.09
2013-2-12,63,51,39,50,36,24,99,61,24,30.05,29.86,4,1,8,0.00
2013-2-13,47,44,37,46,43,35,99,96,73,29.89,29.61,6,2,8,0.19
2013-2-14,54,43,28,41,34,27,99,74,48,29.99,29.81,10,3,18,0.01
2013-2-15,62,49,27,40,34,27,99,61,29,30.03,29.87,13,4,20,0.00
2013-2-16,45,35,26,36,29,18,99,80,62,29.92,29.78,8,2,12,0.00
2013-2-17,42,32,23,19,11,6,76,44,23,30.18,29.93,16,4,26,0.00
2013-2-18,53,38,17,31,22,14,96,57,28,30.31,30.17,8,2,14,0.00
2013-2-19,49,42,36,45,36,25,99,83,50,30.15,29.82,14,5,17,0.17
2013-2-20,55,42,26,24,11,-1,78,33,10,30.07,29.95,10,2,18,0.00
2013-2-21,60,42,21,28,17,6,88,42,11,30.17,30.04,8,1,9,0.00
2013-2-22,41,36,35,37,36,35,99,98,81,30.24,30.07,6,2,11,0.45
2013-2-23,44,39,34,44,39,34,99,99,96,30.09,29.78,7,2,10,0.14
2013-2-24,67,54,37,47,31,22,99,49,20,29.98,29.78,10,3,21,0.01
2013-2-25,43,39,35,28,26,24,71,59,52,30.14,29.98,8,3,12,0.00
2013-2-26,39,36,32,39,35,26,99,96,66,30.04,29.54,8,4,15,1.16
2013-2-27,59,48,38,47,38,-6,99,73,10,29.75,29.60,12,5,18,0.06
2013-2-28,50,42,30,36,28,25,92,60,42,29.83,29.66,11,4,21,0.00
2013-3-1,45,40,27,32,29,26,97,65,53,29.87,29.81,8,2,15,0.00
2013-3-2,47,38,32,34,29,21,95,70,45,29.89,29.77,11,3,20,0.00
2013-3-3,47,37,27,22,18,15,65,48,32,29.96,29.83,12,5,22,0.00
2013-3-4,58,41,19,21,15,2,91,43,10,30.07,29.94,8,2,18,0.00
2013-3-5,48,42,36,45,38,24,99,85,46,30.01,29.56,8,2,15,0.32
2013-3-6,48,40,33,41,27,22,99,62,45,30.03,29.56,16,8,34,0.02
2013-3-7,55,41,26,32,27,24,95,61,37,30.22,30.05,11,4,18,0.00
2013-3-8,60,43,25,27,24,19,92,51,22,30.27,30.15,11,4,19,0.00
2013-3-9,68,49,26,33,29,23,94,52,25,30.30,30.18,6,1,8,0.00
2013-3-10,71,53,33,40,35,32,95,56,26,30.25,30.11,6,1,17,0.00
2013-3-11,69,57,41,55,44,29,85,61,48,30.15,29.83,11,4,17,0.01
2013-3-12,68,59,48,58,46,25,99,69,27,29.92,29.70,14,5,17,0.38
2013-3-13,54,44,33,35,25,16,99,52,28,30.10,29.94,14,5,27,0.00
2013-3-14,55,41,25,19,16,7,73,39,15,30.22,30.09,11,5,17,0.00
2013-3-15,66,50,27,40,30,17,85,49,32,30.14,29.84,14,5,24,0.00
2013-3-16,79,68,52,48,46,41,68,46,32,29.84,29.65,17,10,31,0.00
2013-3-17,66,56,44,55,47,40,90,74,55,30.04,29.81,11,4,20,0.00
2013-3-18,41,39,38,41,39,37,99,99,97,30.10,29.80,7,3,13,0.20
2013-3-19,66,52,35,48,28,10,99,52,15,29.99,29.79,14,5,24,0.01
2013-3-20,57,50,41,26,10,2,40,20,12,30.07,29.76,14,6,24,0.00
2013-3-21,44,38,28,27,13,7,57,37,23,29.90,29.74,17,5,27,0.00
2013-3-22,53,39,18,23,16,12,87,43,23,30.03,29.91,13,3,19,0.00
2013-3-23,60,48,35,39,32,24,85,57,36,30.00,29.85,6,2,11,0.00
2013-3-24,44,40,37,42,39,36,99,97,82,29.88,29.50,10,4,18,0.84
2013-3-25,47,40,35,36,29,21,99,69,37,29.77,29.51,14,5,30,0.06
2013-3-26,46,40,29,27,25,23,85,57,42,30.10,29.82,13,5,22,0.00
2013-3-27,52,42,30,28,24,21,85,51,31,30.19,30.10,14,4,21,0.00
2013-3-28,57,40,23,26,22,16,97,54,21,30.24,30.14,12,3,17,0.00
2013-3-29,64,49,24,36,26,20,96,49,19,30.29,30.12,12,3,24,0.00
2013-3-30,68,54,40,44,37,32,90,57,30,30.18,30.02,8,2,13,0.00
2013-3-31,70,56,49,58,53,44,99,89,62,30.01,29.75,15,4,19,0.72
2013-4-1,70,61,46,55,44,35,99,60,33,29.89,29.80,14,4,31,0.01
2013-4-2,65,53,35,37,25,10,92,41,12,30.11,29.92,10,3,17,0.00
2013-4-3,63,52,36,31,20,12,52,30,14,30.24,30.08,11,2,16,0.00
2013-4-4,48,39,33,39,30,15,99,74,30,30.25,29.92,11,5,15,0.76
2013-4-5,68,50,36,48,40,29,99,73,24,29.98,29.86,12,4,21,0.01
2013-4-6,71,57,34,40,36,32,99,50,25,30.19,30.00,7,2,12,0.00
2013-4-7,72,60,43,50,44,34,74,56,37,30.20,30.05,13,5,23,0.00
2013-4-8,79,67,52,58,54,49,95,65,42,30.12,30.00,14,6,23,0.00
2013-4-9,84,73,54,59,56,51,89,58,39,30.15,30.03,13,5,20,0.00
2013-4-10,86,76,62,63,59,57,86,59,41,30.06,29.91,13,6,21,0.00
2013-4-11,80,72,62,65,62,58,95,72,52,29.94,29.71,14,6,20,0.00
2013-4-12,69,66,63,68,63,43,99,93,42,29.72,29.62,17,8,25,1.12
2013-4-13,74,60,41,46,42,40,99,57,29,29.94,29.78,11,3,17,0.00
2013-4-14,79,66,42,52,43,36,94,47,24,30.05,29.95,6,2,16,0.00
2013-4-15,65,59,55,62,58,49,99,96,63,30.16,29.96,11,2,17,0.20
2013-4-16,80,69,54,64,59,54,99,75,49,30.26,30.14,7,2,16,0.00
2013-4-17,84,72,56,67,61,56,99,70,43,30.18,30.07,8,2,14,0.02
2013-4-18,80,71,64,65,62,59,95,75,51,30.12,29.96,8,3,14,0.00
2013-4-19,78,67,56,68,63,47,99,89,69,29.95,29.69,17,8,25,0.28
2013-4-20,67,54,39,45,35,29,93,51,26,30.21,29.85,12,3,19,0.02
2013-4-21,64,52,35,44,39,34,99,64,43,30.41,30.22,10,3,17,0.00
2013-4-22,65,52,40,41,35,27,89,57,24,30.39,30.19,11,3,14,0.00
2013-4-23,72,59,43,53,48,37,85,68,47,30.22,30.05,4,2,10,0.00
2013-4-24,74,62,52,58,56,52,99,81,57,29.70,29.57,19,9,32,0.00
2013-4-25,76,60,46,60,41,26,92,54,16,30.24,29.99,10,3,16,0.00
2013-4-26,75,59,37,48,36,30,94,50,21,30.39,30.24,8,2,14,0.00
2013-4-27,62,62,62,56,56,56,81,80,79,30.27,30.26,3,2,3,0.00
2013-5-13,70,55,38,46,36,23,99,55,18,30.13,30.00,15,4,15,0.00
2013-5-14,74,58,36,48,42,36,99,59,31,30.21,30.02,16,6,16,0.00
2013-5-15,89,73,54,64,59,49,92,63,42,30.02,29.89,16,8,16,0.00
2013-5-16,86,72,57,65,61,56,99,71,35,29.99,29.89,11,4,11,0.00
2013-5-17,90,74,58,67,63,58,99,73,42,30.05,29.96,14,3,14,0.00
2013-5-18,74,68,61,68,65,60,99,92,76,30.12,30.03,8,2,8,0.01
2013-5-19,80,69,65,71,67,64,99,94,67,30.09,30.00,10,4,14,0.06
2013-5-20,85,73,67,72,69,66,99,88,63,30.08,29.98,11,3,11,0.38
2013-5-21,91,76,64,73,68,63,99,76,51,30.01,29.91,11,4,18,0.38
2013-5-22,87,75,65,70,68,64,99,79,54,29.98,29.85,15,7,23,0.00
2013-5-23,81,71,64,70,66,62,99,86,65,29.95,29.79,13,5,21,0.06
2013-5-24,72,65,56,62,47,35,99,58,27,30.15,29.84,27,8,27,0.00
2013-5-25,78,68,58,46,43,41,56,41,29,30.27,30.10,14,7,17,0.00
2013-5-26,78,64,54,55,49,41,97,60,39,30.25,30.13,10,3,10,0.00
2013-5-27,83,68,50,60,56,50,99,69,43,30.23,30.10,17,5,17,0.00
2013-5-28,84,71,62,65,64,59,96,79,52,30.18,30.10,11,6,14,0.00
2013-5-29,86,76,64,66,63,60,99,68,43,30.18,30.11,14,5,15,0.00
2013-5-30,89,74,59,67,63,59,99,73,42,30.23,30.13,9,3,10,0.00
2013-5-31,87,77,65,70,67,63,99,73,46,30.19,30.08,14,6,16,0.00
2013-6-1,83,76,70,70,69,67,95,79,59,30.09,30.07,17,10,18,0.00
2013-6-2,83,74,67,71,68,67,99,82,66,30.01,29.88,16,9,16,0.34
2013-6-3,86,73,67,74,69,66,99,88,64,29.93,29.81,12,4,13,0.02
2013-6-4,82,74,65,70,68,65,99,81,63,30.05,29.92,15,5,16,0.06
2013-6-5,73,69,66,69,67,65,99,95,85,30.09,30.06,10,5,11,0.22
2013-6-6,79,71,67,74,71,67,99,97,83,29.96,29.78,9,5,9,0.37
2013-6-7,84,72,67,74,70,67,99,93,69,29.81,29.62,12,5,12,0.39
2013-6-8,86,74,64,71,68,63,99,81,54,30.05,29.79,11,3,11,0.04
2013-6-9,89,75,66,72,70,65,99,87,51,30.11,30.01,8,2,8,0.25
2013-6-10,81,74,68,74,71,68,99,93,76,30.05,29.85,22,9,28,0.86
2013-6-11,89,82,69,72,66,64,95,60,45,29.96,29.89,22,6,22,0.89
2013-6-12,92,80,62,78,71,62,99,77,56,29.97,29.87,15,6,16,0.00
2013-6-13,93,79,68,77,72,67,99,82,48,29.85,29.64,27,6,27,1.12
2013-6-14,83,74,60,67,59,55,96,62,39,30.00,29.76,17,6,19,0.00
2013-6-15,86,76,55,66,62,55,99,65,44,30.10,30.01,11,4,17,0.00
2013-6-16,87,77,68,70,67,64,92,74,53,30.09,29.98,16,8,16,0.00
2013-6-17,87,76,71,74,72,68,99,88,63,29.99,29.91,11,5,11,0.08
2013-6-18,83,74,70,75,72,70,99,94,74,29.92,29.76,17,6,18,0.94
2013-6-19,85,76,63,71,68,63,99,76,55,30.05,29.88,8,2,8,0.00
2013-6-20,85,76,64,70,67,64,99,76,56,30.20,30.09,8,3,11,0.00
2013-6-21,86,74,61,68,64,60,99,74,51,30.23,30.14,9,3,12,0.01
2013-6-22,88,76,59,72,67,59,99,76,50,30.20,30.08,10,4,17,0.00
2013-6-23,94,81,66,75,71,66,99,74,42,30.17,30.08,14,4,14,0.00
2013-6-24,90,76,68,76,72,68,99,89,55,30.17,30.06,11,3,17,0.31
2013-6-25,91,79,70,77,73,69,99,83,55,30.10,29.97,11,5,14,0.00
2013-6-26,91,78,70,76,72,70,99,85,57,30.01,29.88,14,7,14,0.00
2013-6-27,89,78,70,79,73,69,99,87,64,29.91,29.70,19,7,19,0.04
2013-6-28,93,80,69,75,72,68,99,80,48,29.74,29.58,11,5,11,0.19
2013-6-29,89,81,69,75,71,68,99,75,54,29.69,29.60,14,5,16,0.01
2013-6-30,89,77,69,75,72,68,99,85,56,29.80,29.67,10,4,16,0.90
2013-7-1,84,75,67,74,71,67,99,88,65,29.94,29.81,9,4,11,0.06
2013-7-2,81,73,71,74,72,71,99,96,77,30.12,29.93,23,6,23,0.54
2013-7-3,81,75,71,76,74,71,99,95,81,30.19,30.09,9,4,11,0.11
2013-7-4,90,79,70,76,73,70,99,84,59,30.22,30.12,15,5,17,0.50
2013-7-5,88,76,70,77,74,70,99,93,67,30.22,30.15,13,4,13,0.04
2013-7-6,87,78,70,76,74,70,99,87,65,30.21,30.08,14,4,20,0.19
2013-7-7,87,71,-19,79,68,-22,99,89,71,30.15,30.03,103,13,103,0.13
2013-7-8,92,79,72,76,73,70,99,84,50,30.16,30.07,9,2,9,0.04
2013-7-9,95,81,71,77,74,71,99,81,47,30.13,30.02,25,4,28,0.21
2013-7-10,88,76,71,76,73,71,99,90,63,30.08,29.92,23,5,23,0.58
2013-7-11,82,74,68,77,72,68,99,96,80,29.94,29.85,21,4,26,0.27
2013-7-12,84,74,68,75,70,68,99,90,68,29.99,29.85,11,3,13,0.00
2013-7-13,81,73,68,75,71,68,99,94,77,30.09,29.98,12,4,14,0.14
2013-7-14,88,78,72,76,73,71,99,86,63,30.24,30.07,13,5,21,0.13
2013-7-15,92,81,68,75,72,68,99,77,51,30.30,30.23,7,2,9,0.00
2013-7-16,98,83,67,79,72,66,99,74,35,30.27,30.18,5,1,8,0.00
2013-7-17,96,78,69,79,74,69,99,89,55,30.22,30.11,26,3,26,0.19
2013-7-18,99,82,69,80,75,69,99,82,47,30.13,30.03,11,2,16,0.00
2013-7-19,91,83,72,78,76,72,99,80,57,30.09,29.97,16,6,17,0.00
2013-7-20,87,77,72,77,75,71,99,93,71,30.00,29.89,15,7,16,0.06
2013-7-21,92,77,69,78,74,69,99,91,62,29.98,29.89,97,5,97,0.01
2013-7-22,99,79,72,87,74,72,99,85,62,29.96,29.81,18,6,19,0.00
2013-7-23,92,80,68,74,71,68,99,77,49,29.83,29.74,16,5,16,0.00
2013-7-24,95,80,67,75,72,67,99,79,47,29.80,29.73,9,2,9,0.00
2013-7-25,88,77,66,72,70,66,99,81,56,29.99,29.82,12,4,12,0.01
2013-7-26,88,78,67,73,70,66,99,80,54,30.09,29.98,10,3,12,0.00
2013-7-27,82,71,67,73,70,66,99,96,75,30.01,29.91,18,3,21,1.44
2013-7-28,74,70,69,73,70,69,99,99,99,29.93,29.89,6,2,6,0.00
2013-7-29,91,76,65,72,68,64,99,78,43,30.13,29.97,9,2,9,0.01
2013-7-30,88,75,64,73,67,63,99,80,51,30.21,30.11,8,2,8,0.00
2013-7-31,83,73,70,74,71,70,99,95,72,30.12,29.95,12,3,17,0.97
2013-8-1,89,76,71,76,73,71,99,89,62,29.95,29.88,9,4,11,0.00
2013-8-2,93,79,65,73,69,63,99,74,44,30.01,29.90,8,2,11,0.01
2013-8-3,90,81,69,78,73,68,99,80,52,29.99,29.91,14,4,17,0.00
2013-8-4,90,79,68,75,70,66,99,77,48,29.97,29.89,16,4,18,0.04
2013-8-5,86,75,66,73,68,64,99,80,61,30.05,29.96,6,2,6,0.00
2013-8-6,74,70,68,71,69,68,99,96,85,29.98,29.94,4,2,4,0.24
2013-8-7,84,75,70,74,72,70,99,91,70,30.07,29.99,9,4,9,0.22
2013-8-8,87,79,71,78,75,71,99,88,69,30.03,29.97,13,4,17,0.01
2013-8-9,92,79,72,80,75,72,99,89,65,30.03,29.96,17,5,26,0.61
2013-8-10,93,79,71,80,75,70,99,89,58,30.08,30.01,14,5,24,1.16
2013-8-11,92,80,69,80,75,69,99,86,58,30.09,30.00,8,3,8,0.01
2013-8-12,94,79,70,77,73,70,99,84,53,30.03,29.92,12,2,12,0.01
2013-8-13,87,76,68,77,73,68,99,91,68,29.93,29.79,12,3,14,0.08
2013-8-14,81,73,64,72,66,62,99,81,53,30.01,29.84,10,3,11,0.00
2013-8-15,78,67,58,63,60,58,99,81,56,30.13,30.04,8,2,8,0.00
2013-8-16,74,62,57,65,60,56,99,93,71,30.14,30.06,9,2,9,0.06
2013-8-17,66,63,58,66,63,58,99,98,93,30.17,30.09,13,4,13,0.99
2013-8-18,67,64,63,66,64,63,99,99,99,30.17,30.11,4,2,4,0.15
2013-8-19,81,72,67,73,70,67,99,92,71,30.15,30.06,4,2,5,0.39
2013-8-20,84,78,69,74,72,69,99,82,67,30.17,30.09,6,2,6,0.01
2013-8-21,88,76,68,77,73,68,99,91,67,30.20,30.08,7,3,12,0.20
2013-8-22,95,82,69,76,73,69,99,77,48,30.12,29.98,8,4,11,0.01
2013-8-23,90,75,66,75,71,66,99,89,55,30.04,29.95,15,2,15,0.25
2013-8-24,84,74,62,67,64,60,99,72,46,30.22,30.07,10,6,14,0.00
2013-8-25,84,69,56,68,62,56,99,81,46,30.36,30.25,9,2,9,0.00
2013-8-26,87,69,54,68,61,54,99,80,49,30.29,30.14,5,1,5,0.00
2013-8-27,92,78,64,76,72,64,99,82,51,30.08,29.97,8,3,8,0.02
2013-8-28,90,79,67,77,73,67,99,84,59,29.99,29.89,11,4,12,0.00
2013-8-29,94,82,71,78,74,71,99,78,54,29.98,29.85,11,4,14,0.00
2013-8-30,92,79,69,73,70,68,99,78,50,30.03,29.91,10,3,10,0.00
2013-8-31,89,77,68,77,72,67,99,88,59,29.93,29.84,12,4,16,0.06
2013-9-1,91,77,67,78,72,67,99,87,61,29.88,29.76,21,7,33,0.30
2013-9-2,90,79,66,76,73,66,99,83,54,29.89,29.78,8,2,10,0.00
2013-9-3,90,78,68,75,71,67,99,81,50,29.94,29.80,11,2,13,0.00
2013-9-4,79,67,61,68,64,60,99,91,64,30.06,29.94,10,2,13,0.00
2013-9-5,89,75,62,71,66,62,99,78,40,30.08,30.02,7,2,7,0.00
2013-9-6,86,72,62,66,64,61,99,79,49,30.17,30.05,7,2,7,0.00
2013-9-7,84,70,59,70,65,58,99,86,58,30.11,29.95,10,3,10,0.00
2013-9-8,92,77,62,71,68,62,99,76,45,29.97,29.90,10,2,10,0.00
2013-9-9,90,78,64,75,69,64,99,76,47,30.10,29.97,8,3,11,0.01
2013-9-10,93,79,65,75,70,65,99,78,47,30.21,30.11,8,2,8,0.00
2013-9-11,90,77,66,75,71,66,99,83,51,30.17,30.05,11,3,15,0.00
2013-9-12,91,74,67,77,71,66,99,90,56,30.04,29.81,14,3,23,0.48
2013-9-13,85,74,63,71,64,56,99,74,42,29.88,29.76,15,4,16,0.00
2013-9-14,81,66,53,61,56,51,99,74,44,30.09,29.90,19,4,19,0.00
2013-9-15,83,66,51,67,60,51,99,84,57,30.19,30.07,8,2,14,0.00
2013-9-16,88,73,60,71,64,60,99,79,47,30.11,30.02,11,2,14,0.00
2013-9-17,75,66,58,62,59,56,98,78,54,30.28,30.15,9,4,9,0.00
2013-9-18,78,65,56,63,58,54,97,80,51,30.28,30.13,8,3,8,0.00
2013-9-19,79,67,57,67,62,57,99,86,56,30.16,30.05,11,2,11,0.00
2013-9-20,92,76,61,72,67,61,99,78,48,30.05,29.88,9,3,10,0.00
2013-9-21,74,70,64,72,69,64,99,98,91,29.91,29.68,14,6,17,0.78
2013-9-22,80,68,56,63,59,56,99,77,47,29.89,29.70,17,5,17,0.01
2013-9-23,76,63,53,61,57,53,99,82,50,30.04,29.89,11,2,11,0.00
2013-9-24,82,67,58,65,61,58,99,82,48,30.05,29.90,7,2,9,0.00
2013-9-25,74,63,57,66,61,56,99,93,67,29.91,29.83,8,2,8,0.04
2013-9-26,78,65,55,64,58,55,99,82,50,29.99,29.85,16,3,16,0.01
2013-9-27,79,63,50,63,56,50,99,82,50,30.15,30.01,13,3,13,0.00
2013-9-28,74,61,50,62,55,50,99,81,56,30.22,30.12,12,3,13,0.00
2013-9-29,76,61,49,62,56,49,99,86,56,30.15,30.00,8,2,11,0.00
2013-9-30,83,65,49,64,56,49,99,77,40,30.07,29.95,10,2,10,0.00
2013-10-1,86,68,52,65,60,51,99,79,44,30.10,29.99,12,2,12,0.00
2013-10-2,89,68,53,65,60,53,99,80,40,30.12,30.03,5,1,5,0.00
2013-10-3,86,72,58,69,63,58,99,78,46,30.10,30.02,13,3,16,0.00
2013-10-4,91,72,58,71,65,58,99,81,43,30.11,30.02,7,2,11,0.00
2013-10-5,89,73,58,71,65,58,99,79,47,30.10,30.00,9,2,12,0.00
2013-10-6,86,75,61,70,66,60,99,76,52,30.01,29.88,14,4,17,0.00
2013-10-7,78,68,60,71,64,53,99,87,69,29.98,29.78,13,5,13,1.03
2013-10-8,70,61,53,53,50,48,86,70,50,30.17,29.98,20,7,20,0.00
2013-10-9,74,60,48,55,51,46,96,73,48,30.19,30.09,17,6,21,0.00
2013-10-10,73,62,48,64,57,48,99,86,72,30.09,29.94,11,4,11,0.00
2013-10-11,81,70,56,66,61,56,99,76,49,29.96,29.88,8,2,15,0.00
2013-10-12,74,65,56,66,62,56,99,89,68,30.04,29.93,5,1,5,0.00
2013-10-13,72,66,61,65,64,60,99,91,76,30.17,30.06,13,6,16,0.00
2013-10-14,72,64,59,64,61,59,99,92,74,30.21,30.12,14,5,14,0.13
2013-10-15,78,65,56,60,58,56,99,80,48,30.17,30.01,9,3,9,0.00
2013-10-16,77,68,53,64,61,53,99,80,63,30.04,29.91,9,3,11,0.00
2013-10-17,62,60,59,61,60,58,99,99,99,29.93,29.88,0,0,0,0.00
2013-10-18,74,62,52,62,55,51,99,82,48,30.01,29.86,10,3,10,0.01
2013-10-19,64,58,52,62,57,52,99,98,93,29.93,29.80,10,2,11,0.02
2013-10-20,71,55,41,50,43,39,99,70,33,30.06,29.88,9,3,12,0.01
2013-10-21,70,54,36,54,48,36,99,81,55,30.11,29.97,11,2,12,0.00
2013-10-22,68,60,52,58,56,51,99,87,63,29.97,29.78,11,3,11,0.00
2013-10-23,66,56,45,58,42,32,99,64,36,29.95,29.68,24,8,25,0.00
2013-10-24,60,46,31,43,36,30,99,73,39,30.11,29.99,13,3,13,0.00
2013-10-25,55,44,33,40,33,29,99,67,41,30.32,30.12,17,5,18,0.00
2013-10-26,59,45,25,38,33,25,99,66,39,30.31,30.02,23,6,23,0.00
2013-10-27,70,55,36,50,44,36,99,69,40,30.07,29.99,17,3,17,0.00
2013-10-28,67,55,44,56,51,44,99,87,64,30.21,30.06,3,1,3,0.00
2013-10-29,78,62,49,60,54,49,99,77,47,30.28,30.19,10,2,10,0.00
2013-10-30,79,66,51,61,57,50,99,77,50,30.23,30.10,17,4,17,0.00
2013-10-31,70,64,55,66,60,54,99,86,75,30.12,29.85,20,7,22,0.00
2013-11-1,69,66,58,67,63,58,99,92,80,29.83,29.63,29,12,29,0.34
2013-11-2,70,57,45,58,47,37,99,73,35,29.94,29.68,22,4,22,0.01
2013-11-3,64,49,36,46,37,34,99,68,35,30.30,29.94,17,4,17,0.00
2013-11-4,47,38,32,38,34,32,99,87,66,30.46,30.31,4,1,8,0.00
2013-11-5,58,46,32,50,40,30,99,80,61,30.51,30.38,12,3,12,0.00
2013-11-6,74,56,47,56,51,46,99,87,53,30.37,30.07,6,2,6,0.00
2013-11-7,72,55,43,61,46,34,99,75,43,30.09,29.91,22,6,23,0.00
2013-11-8,61,45,30,36,26,13,95,54,16,30.26,30.11,13,4,17,0.00
2013-11-9,59,47,25,36,31,25,99,58,32,30.31,30.14,16,5,19,0.00
2013-11-10,74,58,34,43,34,26,99,47,17,30.17,30.05,20,6,24,0.00
2013-11-11,64,48,30,34,28,22,85,50,21,30.30,30.11,10,3,11,0.00
2013-11-12,66,42,32,40,31,17,98,70,31,30.38,30.00,25,10,28,0.02
2013-11-13,52,35,18,28,18,15,96,55,23,30.48,30.38,16,4,16,0.00
2013-11-14,59,40,21,28,22,16,99,56,19,30.39,30.26,14,4,14,0.00
2013-11-15,61,47,27,47,38,25,99,73,33,30.28,30.14,6,1,7,0.04
2013-11-16,65,54,48,58,53,47,99,95,77,30.22,30.15,5,2,7,0.02
2013-11-17,66,60,52,62,58,52,99,96,85,30.17,29.87,11,3,12,0.17
2013-11-18,75,64,48,67,47,32,99,59,29,29.95,29.78,17,7,18,0.02
2013-11-19,58,48,37,31,27,25,67,45,29,30.20,29.97,14,5,14,0.00
2013-11-20,55,44,33,34,31,28,83,62,43,30.41,30.22,13,4,13,0.00
2013-11-21,59,48,42,46,40,32,86,75,61,30.44,29.36,12,5,12,0.00
2013-11-22,54,51,50,50,47,45,92,88,83,30.34,30.26,4,2,4,0.00
2013-11-23,61,55,42,59,40,16,99,62,28,30.13,30.02,14,6,20,0.00
2013-11-24,42,34,24,20,6,-5,54,32,13,30.45,30.17,17,8,26,0.00
2013-11-25,44,32,16,20,11,4,87,46,23,30.48,30.32,7,2,7,0.00
2013-11-26,44,37,31,43,36,20,99,95,52,30.27,29.57,14,3,17,2.48
2013-11-27,45,38,25,45,32,16,99,78,50,30.13,29.48,29,9,30,0.25
2013-11-28,35,21,17,26,18,15,99,87,62,30.32,30.15,5,1,5,0.00
2013-11-29,56,41,21,32,25,20,99,58,30,30.51,30.39,11,4,13,0.00
2013-11-30,50,36,25,28,24,22,91,64,34,30.58,30.33,11,3,14,0.00
2013-12-1,61,42,22,37,31,22,99,71,37,30.30,29.97,10,2,11,0.00
2013-12-2,64,44,26,42,35,26,99,75,40,29.97,29.77,4,1,8,0.00
2013-12-3,61,52,38,53,48,37,99,88,75,29.92,29.81,12,3,12,0.01
2013-12-4,60,54,50,60,54,50,99,99,99,30.02,29.91,4,1,4,0.07
2013-12-5,67,63,59,66,63,59,99,99,97,30.05,29.96,17,8,18,0.09
2013-12-6,77,70,66,67,66,64,99,87,66,29.99,29.90,27,16,33,0.00
2013-12-7,64,51,43,64,46,37,99,83,72,30.37,29.95,13,7,14,0.27
2013-12-8,43,36,32,39,34,31,99,93,79,30.37,30.22,11,5,15,0.17
2013-12-9,44,38,33,43,38,32,99,99,99,30.21,30.00,7,2,9,0.33
2013-12-10,53,43,31,48,37,24,99,82,43,30.25,29.85,21,5,26,0.28
2013-12-11,52,36,21,38,26,21,99,71,35,30.38,30.22,14,3,14,0.00
2013-12-12,50,39,24,27,16,2,94,43,15,30.35,30.22,14,4,17,0.00
2013-12-13,53,35,13,33,22,-20,99,64,21,30.30,30.19,15,3,17,0.00
2013-12-14,40,37,36,38,35,32,99,94,79,30.20,29.77,11,5,13,0.54
2013-12-15,53,42,29,44,33,26,99,72,45,30.03,29.69,21,7,21,0.01
2013-12-16,60,43,27,37,32,26,99,70,35,30.10,30.01,11,5,14,0.00
2013-12-17,63,49,29,38,34,28,99,60,36,30.06,29.83,19,8,27,0.00
2013-12-18,54,42,26,26,17,0,78,41,11,30.21,30.00,16,4,20,0.00
2013-12-19,58,41,31,32,26,14,99,60,24,30.18,29.81,11,3,13,0.33
2013-12-20,60,41,31,52,33,14,99,76,41,30.25,29.89,14,4,15,0.39
2013-12-21,67,45,31,63,43,31,99,95,87,30.11,29.83,8,2,11,0.27
2013-12-22,72,65,62,69,64,61,99,97,88,29.93,29.86,20,9,25,1.42
2013-12-23,50,37,31,43,28,10,99,73,25,30.25,29.80,12,3,12,0.33
2013-12-24,44,38,31,34,31,28,90,77,61,30.01,29.90,11,4,11,6.78
2013-12-25,46,30,17,22,14,8,95,57,23,30.24,30.09,8,2,10,0.00
2013-12-26,55,34,20,28,23,18,99,69,30,30.09,29.97,8,2,13,0.00
2013-12-27,59,36,21,30,22,13,99,65,19,30.19,30.08,9,1,9,0.00
2013-12-28,58,39,21,41,29,21,99,72,30,30.15,29.91,9,2,10,0.01
2013-12-29,62,47,40,53,44,39,99,91,62,29.84,29.49,15,4,16,0.89
2013-12-30,55,43,32,45,38,31,99,85,61,29.84,29.67,8,2,9,0.00
2013-12-31,55,44,32,35,23,18,96,46,29,30.08,29.96,14,4,17,0.00
2014-1-1,52,44,26,35,28,23,99,56,33,30.11,29.91,11,4,14,0.00
2014-1-2,40,39,35,40,35,24,99,85,64,29.52,29.37,14,7,26,0.38